createdAt,value
2022-09-23T00:01:16.798Z,4.70
2022-09-23T00:03:46.597Z,4.72
2022-09-23T00:06:16.270Z,4.10
2022-09-23T00:08:43.971Z,4.28
2022-09-23T00:11:16.905Z,3.47
2022-09-23T00:13:46.242Z,3.35
2022-09-23T00:16:16.203Z,3.53
2022-09-23T00:18:43.913Z,3.53
2022-09-23T00:21:13.542Z,3.25
2022-09-23T00:23:42.799Z,3.40
2022-09-23T00:26:15.831Z,3.35
2022-09-23T00:31:13.685Z,3.40
2022-09-23T00:33:40.811Z,3.75
2022-09-23T00:36:11.106Z,3.25
2022-09-23T00:38:38.744Z,3.47
2022-09-23T00:41:06.458Z,3.17
2022-09-23T00:43:50.524Z,3.22
2022-09-23T00:46:43.668Z,3.30
2022-09-23T00:49:20.407Z,3.97
2022-09-23T00:51:54.479Z,3.25
2022-09-23T00:54:24.084Z,3.70
2022-09-23T00:56:51.366Z,3.65
2022-09-23T00:59:19.493Z,2.78
2022-09-23T01:01:48.513Z,3.40
2022-09-23T01:04:15.881Z,2.95
2022-09-23T01:06:42.604Z,3.50
2022-09-23T01:09:09.403Z,2.72
2022-09-23T01:11:57.600Z,3.25
2022-09-23T01:14:44.560Z,3.22
2022-09-23T01:17:19.940Z,3.15
2022-09-23T01:19:52.574Z,3.17
2022-09-23T01:22:42.090Z,3.40
2022-09-23T01:25:40.830Z,3.88
2022-09-23T01:28:26.088Z,3.60
2022-09-23T01:31:19.350Z,3.80
2022-09-23T01:33:53.192Z,3.40
2022-09-23T01:37:02.378Z,3.47
2022-09-23T01:39:40.201Z,3.50
2022-09-23T01:42:17.321Z,3.40
2022-09-23T01:44:51.328Z,2.85
2022-09-23T01:47:26.532Z,3.17
2022-09-23T01:49:59.166Z,3.58
2022-09-23T01:52:28.591Z,3.53
2022-09-23T01:55:19.040Z,3.42
2022-09-23T01:58:24.534Z,2.63
2022-09-23T02:01:15.147Z,2.97
2022-09-23T02:03:59.328Z,3.20
2022-09-23T02:06:50.754Z,3.45
2022-09-23T02:09:24.921Z,2.78
2022-09-23T02:11:54.505Z,3.55
2022-09-23T02:14:33.302Z,2.60
2022-09-23T02:17:08.918Z,4.05
2022-09-23T02:19:52.966Z,3.60
2022-09-23T02:23:01.912Z,4.07
2022-09-23T02:25:44.618Z,3.30
2022-09-23T02:28:25.559Z,4.20
2022-09-23T02:31:04.509Z,3.55
2022-09-23T02:33:46.750Z,4.03
2022-09-23T02:36:25.830Z,3.67
2022-09-23T02:38:57.676Z,3.58
2022-09-23T02:41:34.189Z,3.72
2022-09-23T02:44:07.165Z,4.13
2022-09-23T02:46:35.000Z,3.50
2022-09-23T02:49:26.286Z,3.60
2022-09-23T02:51:54.641Z,4.10
2022-09-23T02:54:30.757Z,3.70
2022-09-23T02:57:01.232Z,3.50
2022-09-23T02:59:28.953Z,3.53
2022-09-23T03:02:20.718Z,3.60
2022-09-23T03:05:04.066Z,3.67
2022-09-23T03:10:43.942Z,3.67
2022-09-23T03:13:29.336Z,3.72
2022-09-23T03:16:38.380Z,3.22
2022-09-23T03:19:48.800Z,3.60
2022-09-23T03:22:23.685Z,3.42
2022-09-23T03:24:54.182Z,3.50
2022-09-23T03:27:25.852Z,3.50
2022-09-23T03:29:54.245Z,3.67
2022-09-23T03:32:24.730Z,3.60
2022-09-23T03:34:54.021Z,3.20
2022-09-23T03:37:27.072Z,3.10
2022-09-23T03:42:30.113Z,4.05
2022-09-23T03:44:57.618Z,3.45
2022-09-23T03:47:27.439Z,3.58
2022-09-23T03:49:54.727Z,3.90
2022-09-23T03:52:23.819Z,3.17
2022-09-23T03:54:52.125Z,3.38
2022-09-23T03:57:22.057Z,3.72
2022-09-23T03:59:50.555Z,3.72
2022-09-23T04:02:18.736Z,3.03
2022-09-23T04:04:45.809Z,3.80
2022-09-23T04:07:13.017Z,3.50
2022-09-23T04:09:40.372Z,3.72
2022-09-23T04:12:07.484Z,4.47
2022-09-23T04:14:34.284Z,4.20
2022-09-23T04:17:01.032Z,4.25
2022-09-23T04:19:27.849Z,4.35
2022-09-23T04:21:54.601Z,3.92
2022-09-23T04:24:22.155Z,4.65
2022-09-23T04:26:53.633Z,4.07
2022-09-23T04:29:21.608Z,3.58
2022-09-23T04:31:48.737Z,3.97
2022-09-23T04:34:19.259Z,3.78
2022-09-23T04:36:47.184Z,3.85
2022-09-23T04:39:15.506Z,4.15
2022-09-23T04:41:43.584Z,3.50
2022-09-23T04:44:12.472Z,4.57
2022-09-23T04:46:41.097Z,3.97
2022-09-23T04:49:08.462Z,4.30
2022-09-23T04:51:35.758Z,3.90
2022-09-23T04:54:02.514Z,4.18
2022-09-23T04:56:33.304Z,3.97
2022-09-23T04:59:01.793Z,3.90
2022-09-23T05:01:30.930Z,3.70
2022-09-23T05:04:02.424Z,4.75
2022-09-23T05:06:31.433Z,4.32
2022-09-23T05:08:59.311Z,4.40
2022-09-23T05:11:26.685Z,4.15
2022-09-23T05:13:54.788Z,4.45
2022-09-23T05:16:25.724Z,4.63
2022-09-23T05:18:53.920Z,4.65
2022-09-23T05:21:23.392Z,4.43
2022-09-23T05:23:54.187Z,4.30
2022-09-23T05:26:23.079Z,4.75
2022-09-23T05:28:49.793Z,4.03
2022-09-23T05:31:20.645Z,4.60
2022-09-23T05:33:51.773Z,4.50
2022-09-23T05:36:19.957Z,5.00
2022-09-23T05:38:48.614Z,4.82
2022-09-23T05:41:16.285Z,4.80
2022-09-23T05:43:43.755Z,5.65
2022-09-23T05:46:12.881Z,5.50
2022-09-23T05:48:40.666Z,7.38
2022-09-23T05:51:11.129Z,6.68
2022-09-23T05:53:38.152Z,6.90
2022-09-23T05:56:05.732Z,6.55
2022-09-23T05:58:32.962Z,6.53
2022-09-23T06:00:59.765Z,6.43
2022-09-23T06:03:26.695Z,6.00
2022-09-23T06:05:55.315Z,6.13
2022-09-23T06:08:23.082Z,5.78
2022-09-23T06:10:54.360Z,7.28
2022-09-23T06:13:21.787Z,6.00
2022-09-23T06:15:48.655Z,6.25
2022-09-23T06:18:15.364Z,6.28
2022-09-23T06:20:42.128Z,5.82
2022-09-23T06:23:11.164Z,5.90
2022-09-23T06:25:38.586Z,6.18
2022-09-23T06:28:06.918Z,6.53
2022-09-23T06:30:34.811Z,6.43
2022-09-23T06:33:01.924Z,5.75
2022-09-23T06:35:28.992Z,6.65
2022-09-23T06:37:55.896Z,5.65
2022-09-23T06:40:23.006Z,6.22
2022-09-23T06:43:01.248Z,6.57
2022-09-23T06:45:28.839Z,5.63
2022-09-23T06:47:57.793Z,5.82
2022-09-23T06:50:27.014Z,6.15
2022-09-23T06:52:58.410Z,5.95
2022-09-23T06:55:27.195Z,5.82
2022-09-23T06:57:54.980Z,5.28
2022-09-23T07:00:21.775Z,5.80
2022-09-23T07:02:48.978Z,5.97
2022-09-23T07:05:17.358Z,6.28
2022-09-23T07:07:45.005Z,5.78
2022-09-23T07:10:12.356Z,6.30
2022-09-23T07:12:39.410Z,4.78
2022-09-23T07:15:06.884Z,5.20
2022-09-23T07:17:34.991Z,4.47
2022-09-23T07:20:02.253Z,5.78
2022-09-23T07:22:29.276Z,5.00
2022-09-23T07:24:56.324Z,4.88
2022-09-23T07:27:27.388Z,4.57
2022-09-23T07:29:55.025Z,4.88
2022-09-23T07:32:22.918Z,4.47
2022-09-23T07:34:49.836Z,4.50
2022-09-23T07:37:17.676Z,4.82
2022-09-23T07:39:45.452Z,4.22
2022-09-23T07:42:13.286Z,4.30
2022-09-23T07:44:43.257Z,4.15
2022-09-23T07:47:10.033Z,4.18
2022-09-23T07:49:37.054Z,3.75
2022-09-23T07:52:04.904Z,3.50
2022-09-23T07:54:32.826Z,3.35
2022-09-23T07:56:59.993Z,3.45
2022-09-23T07:59:27.295Z,3.85
2022-09-23T08:01:55.524Z,3.40
2022-09-23T08:04:27.730Z,3.70
2022-09-23T08:06:57.814Z,4.10
2022-09-23T08:09:28.196Z,3.50
2022-09-23T08:11:55.378Z,2.72
2022-09-23T08:14:22.462Z,2.60
2022-09-23T08:16:49.907Z,2.92
2022-09-23T08:19:17.035Z,2.70
2022-09-23T08:21:47.443Z,2.65
2022-09-23T08:24:17.350Z,2.47
2022-09-23T08:26:45.448Z,2.75
2022-09-23T08:29:14.178Z,2.33
2022-09-23T08:31:41.076Z,2.30
2022-09-23T08:34:08.690Z,2.20
2022-09-23T08:36:36.258Z,2.53
2022-09-23T08:39:03.621Z,2.80
2022-09-23T08:41:33.353Z,2.08
2022-09-23T08:44:07.043Z,2.35
2022-09-23T08:46:42.289Z,2.42
2022-09-23T08:49:14.420Z,2.38
2022-09-23T08:51:46.891Z,2.20
2022-09-23T08:54:16.460Z,2.55
2022-09-23T08:56:47.224Z,2.53
2022-09-23T08:59:41.810Z,2.47
2022-09-23T09:02:19.420Z,2.42
2022-09-23T09:04:51.022Z,2.10
2022-09-23T09:07:38.797Z,2.03
2022-09-23T09:10:28.520Z,2.60
2022-09-23T09:13:07.410Z,2.10
2022-09-23T09:15:44.043Z,2.40
2022-09-23T09:18:21.430Z,2.30
2022-09-23T09:21:10.712Z,2.30
2022-09-23T09:23:47.924Z,2.22
2022-09-23T09:26:23.179Z,2.33
2022-09-23T09:29:34.455Z,2.15
2022-09-23T09:32:25.469Z,2.00
2022-09-23T09:34:59.941Z,2.10
2022-09-23T09:37:35.835Z,2.22
2022-09-23T09:40:03.757Z,2.40
2022-09-23T09:42:41.544Z,2.35
2022-09-23T09:45:14.226Z,2.17
2022-09-23T09:48:03.452Z,2.33
2022-09-23T09:50:52.230Z,1.98
2022-09-23T09:53:23.902Z,2.10
2022-09-23T09:56:12.688Z,2.10
2022-09-23T09:58:49.055Z,2.03
2022-09-23T10:01:29.972Z,2.28
2022-09-23T10:03:59.467Z,2.10
2022-09-23T10:06:34.874Z,2.40
2022-09-23T10:09:04.777Z,2.30
2022-09-23T10:11:32.992Z,1.98
2022-09-23T10:14:05.706Z,1.80
2022-09-23T10:16:34.798Z,1.88
2022-09-23T10:19:14.295Z,1.90
2022-09-23T10:21:42.298Z,1.90
2022-09-23T10:24:18.951Z,1.85
2022-09-23T10:26:55.837Z,1.77
2022-09-23T10:29:28.706Z,1.90
2022-09-23T10:35:04.686Z,1.83
2022-09-23T10:37:37.587Z,1.58
2022-09-23T10:43:32.905Z,1.70
2022-09-23T10:46:22.503Z,1.90
2022-09-23T10:49:23.832Z,1.65
2022-09-23T10:52:09.355Z,1.30
2022-09-23T10:54:51.395Z,1.45
2022-09-23T10:57:41.754Z,1.40
2022-09-23T11:00:28.473Z,1.45
2022-09-23T11:03:32.200Z,1.67
2022-09-23T11:06:05.744Z,1.70
2022-09-23T11:09:24.879Z,1.55
2022-09-23T11:12:07.376Z,1.20
2022-09-23T11:14:34.175Z,1.35
2022-09-23T11:17:31.802Z,1.58
2022-09-23T11:20:21.824Z,1.05
2022-09-23T11:23:09.576Z,1.27
2022-09-23T11:26:01.214Z,1.70
2022-09-23T11:28:40.177Z,1.52
2022-09-23T11:31:10.224Z,1.33
2022-09-23T11:33:58.606Z,1.30
2022-09-23T11:36:36.296Z,1.55
2022-09-23T11:39:16.805Z,1.48
2022-09-23T11:41:44.914Z,1.25
2022-09-23T11:44:28.418Z,1.45
2022-09-23T11:47:04.701Z,1.48
2022-09-23T11:49:36.756Z,0.90
2022-09-23T11:52:14.410Z,0.97
2022-09-23T11:54:49.593Z,1.23
2022-09-23T11:57:49.380Z,1.05
2022-09-23T12:00:22.576Z,0.90
2022-09-23T12:05:44.800Z,1.63
2022-09-23T12:08:37.859Z,1.30
2022-09-23T12:11:06.498Z,1.30
2022-09-23T12:13:59.125Z,1.23
2022-09-23T12:16:44.716Z,1.65
2022-09-23T12:19:51.730Z,1.30
2022-09-23T12:22:57.456Z,1.05
2022-09-23T12:25:48.328Z,1.35
2022-09-23T12:28:15.025Z,1.00
2022-09-23T12:30:42.767Z,1.00
2022-09-23T12:33:27.687Z,1.48
2022-09-23T12:36:06.710Z,1.10
2022-09-23T12:38:38.026Z,1.00
2022-09-23T12:41:34.504Z,1.45
2022-09-23T12:44:15.617Z,1.33
2022-09-23T12:46:46.745Z,1.25
2022-09-23T12:49:36.849Z,1.23
2022-09-23T12:52:17.265Z,1.30
2022-09-23T12:54:49.224Z,1.20
2022-09-23T12:57:33.943Z,1.42
2022-09-23T13:00:12.094Z,1.30
2022-09-23T13:03:18.221Z,0.90
2022-09-23T13:06:18.922Z,1.20
2022-09-23T13:08:47.373Z,1.42
2022-09-23T13:11:28.628Z,1.45
2022-09-23T13:13:59.948Z,1.20
2022-09-23T13:16:41.606Z,1.50
2022-09-23T13:19:26.782Z,1.10
2022-09-23T13:21:53.487Z,1.02
2022-09-23T13:24:23.278Z,1.10
2022-09-23T13:26:57.278Z,1.08
2022-09-23T13:29:46.431Z,0.88
2022-09-23T13:32:17.706Z,1.00
2022-09-23T13:34:48.060Z,1.17
2022-09-23T13:37:22.781Z,1.33
2022-09-23T13:39:50.564Z,0.98
2022-09-23T13:42:28.506Z,1.58
2022-09-23T13:44:57.553Z,1.10
2022-09-23T13:47:26.800Z,1.15
2022-09-23T13:49:53.884Z,1.10
2022-09-23T13:52:27.950Z,1.33
2022-09-23T13:54:54.757Z,1.30
2022-09-23T13:57:33.871Z,1.20
2022-09-23T14:00:21.378Z,1.00
2022-09-23T14:02:48.206Z,1.20
2022-09-23T14:05:24.039Z,1.15
2022-09-23T14:07:56.127Z,1.00
2022-09-23T14:10:24.816Z,0.93
2022-09-23T14:12:52.741Z,1.40
2022-09-23T14:15:21.455Z,1.40
2022-09-23T14:17:53.594Z,1.30
2022-09-23T14:20:22.134Z,1.15
2022-09-23T14:23:02.436Z,1.40
2022-09-23T14:25:29.327Z,1.50
2022-09-23T14:27:59.842Z,1.33
2022-09-23T14:30:27.461Z,1.35
2022-09-23T14:32:54.345Z,1.30
2022-09-23T14:35:27.021Z,1.40
2022-09-23T14:38:16.129Z,1.38
2022-09-23T14:40:53.795Z,1.40
2022-09-23T14:43:26.955Z,2.20
2022-09-23T14:45:56.975Z,1.90
2022-09-23T14:48:28.601Z,1.52
2022-09-23T14:50:57.005Z,1.70
2022-09-23T14:53:50.042Z,1.60
2022-09-23T14:56:20.355Z,1.42
2022-09-23T14:58:52.674Z,1.30
2022-09-23T15:01:32.276Z,2.50
2022-09-23T15:04:14.133Z,2.08
2022-09-23T15:06:47.513Z,1.75
2022-09-23T15:09:23.761Z,1.60
2022-09-23T15:11:58.045Z,1.90
2022-09-23T15:14:38.224Z,2.05
2022-09-23T15:17:13.614Z,1.77
2022-09-23T15:19:40.642Z,1.70
2022-09-23T15:22:10.020Z,1.50
2022-09-23T15:24:43.187Z,1.45
2022-09-23T15:27:30.776Z,1.50
2022-09-23T15:30:15.574Z,1.50
2022-09-23T15:32:43.759Z,2.05
2022-09-23T15:35:15.731Z,1.73
2022-09-23T15:37:44.528Z,1.80
2022-09-23T15:40:23.874Z,1.50
2022-09-23T15:42:56.694Z,1.20
2022-09-23T15:45:36.496Z,1.30
2022-09-23T15:48:11.548Z,1.70
2022-09-23T15:50:40.442Z,1.52
2022-09-23T15:53:08.447Z,1.52
2022-09-23T15:55:35.182Z,1.50
2022-09-23T15:58:02.054Z,1.60
2022-09-23T16:00:28.941Z,1.42
2022-09-23T16:02:55.761Z,2.03
2022-09-23T16:05:30.704Z,1.90
2022-09-23T16:07:57.469Z,1.80
2022-09-23T16:10:24.196Z,2.30
2022-09-23T16:12:53.910Z,2.28
2022-09-23T16:15:23.190Z,2.30
2022-09-23T16:17:50.498Z,1.90
2022-09-23T16:20:17.936Z,2.22
2022-09-23T16:23:12.359Z,1.98
2022-09-23T16:25:39.134Z,2.30
2022-09-23T16:28:05.945Z,2.55
2022-09-23T16:30:34.129Z,2.05
2022-09-23T16:33:01.880Z,2.35
2022-09-23T16:35:31.278Z,2.45
2022-09-23T16:37:58.091Z,2.50
2022-09-23T16:40:25.417Z,2.58
2022-09-23T16:42:54.416Z,2.28
2022-09-23T16:45:23.284Z,2.47
2022-09-23T16:47:52.180Z,2.30
2022-09-23T16:50:22.724Z,2.55
2022-09-23T16:52:57.567Z,2.72
2022-09-23T16:55:27.323Z,2.58
2022-09-23T16:57:54.617Z,3.47
2022-09-23T17:00:40.256Z,4.95
2022-09-23T17:03:25.539Z,3.38
2022-09-23T17:05:54.477Z,3.35
2022-09-23T17:08:21.194Z,4.47
2022-09-23T17:10:57.121Z,4.38
2022-09-23T17:13:25.477Z,4.88
2022-09-23T17:15:53.370Z,4.65
2022-09-23T17:18:20.840Z,4.25
2022-09-23T17:20:57.884Z,3.22
2022-09-23T17:23:27.296Z,3.70
2022-09-23T17:25:54.577Z,3.78
2022-09-23T17:28:22.077Z,3.83
2022-09-23T17:31:01.087Z,3.97
2022-09-23T17:33:30.050Z,3.65
2022-09-23T17:35:57.433Z,4.20
2022-09-23T17:38:28.888Z,3.70
2022-09-23T17:41:00.392Z,3.53
2022-09-23T17:43:28.422Z,4.32
2022-09-23T17:45:58.027Z,4.18
2022-09-23T17:48:26.291Z,4.80
2022-09-23T17:50:57.944Z,3.90
2022-09-23T17:53:26.121Z,4.38
2022-09-23T17:56:04.345Z,4.15
2022-09-23T17:58:33.638Z,3.90
2022-09-23T18:01:01.638Z,4.28
2022-09-23T18:03:29.915Z,4.22
2022-09-23T18:06:09.406Z,4.65
2022-09-23T18:08:39.976Z,4.63
2022-09-23T18:11:12.808Z,4.38
2022-09-23T18:13:39.730Z,4.97
2022-09-23T18:16:06.997Z,4.43
2022-09-23T18:18:33.938Z,4.68
2022-09-23T18:21:02.752Z,4.75
2022-09-23T18:23:29.864Z,4.85
2022-09-23T18:25:57.017Z,5.15
2022-09-23T18:28:23.842Z,5.78
2022-09-23T18:30:55.450Z,5.22
2022-09-23T18:33:23.690Z,5.03
2022-09-23T18:35:51.867Z,4.72
2022-09-23T18:38:19.102Z,5.22
2022-09-23T18:40:56.350Z,6.13
2022-09-23T18:43:25.866Z,5.38
2022-09-23T18:46:12.263Z,5.10
2022-09-23T18:48:58.365Z,5.32
2022-09-23T18:51:26.406Z,5.28
2022-09-23T18:53:57.625Z,4.70
2022-09-23T18:56:31.073Z,5.00
2022-09-23T18:58:57.919Z,5.30
2022-09-23T19:01:25.426Z,5.43
2022-09-23T19:03:56.597Z,5.32
2022-09-23T19:06:23.955Z,5.45
2022-09-23T19:08:55.012Z,6.10
2022-09-23T19:11:22.849Z,5.72
2022-09-23T19:13:54.961Z,5.93
2022-09-23T19:16:22.766Z,6.50
2022-09-23T19:18:50.445Z,6.72
2022-09-23T19:21:20.592Z,6.95
2022-09-23T19:23:53.370Z,8.38
2022-09-23T19:26:25.860Z,9.15
2022-09-23T19:28:57.452Z,13.20
2022-09-23T19:31:26.664Z,10.82
2022-09-23T19:33:58.749Z,11.45
2022-09-23T19:36:35.271Z,12.32
2022-09-23T19:39:04.729Z,12.45
2022-09-23T19:41:33.429Z,12.77
2022-09-23T19:44:07.510Z,11.02
2022-09-23T19:46:42.838Z,9.95
2022-09-23T19:49:11.106Z,9.32
2022-09-23T19:51:39.218Z,9.75
2022-09-23T19:54:07.884Z,9.30
2022-09-23T19:56:35.671Z,9.40
2022-09-23T19:59:04.692Z,9.15
2022-09-23T20:01:32.143Z,8.85
2022-09-23T20:03:59.495Z,8.73
2022-09-23T20:06:30.255Z,8.48
2022-09-23T20:08:59.582Z,7.85
2022-09-23T20:11:28.538Z,7.80
2022-09-23T20:14:01.108Z,8.07
2022-09-23T20:16:32.193Z,7.97
2022-09-23T20:18:59.989Z,7.40
2022-09-23T20:21:28.181Z,7.10
2022-09-23T20:23:55.418Z,6.68
2022-09-23T20:26:40.824Z,7.25
2022-09-23T20:29:08.983Z,6.53
2022-09-23T20:31:35.892Z,6.13
2022-09-23T20:34:05.617Z,6.05
2022-09-23T20:36:35.079Z,6.53
2022-09-23T20:39:05.362Z,6.57
2022-09-23T20:41:35.802Z,6.60
2022-09-23T20:44:03.594Z,6.28
2022-09-23T20:46:30.553Z,5.50
2022-09-23T20:48:57.407Z,6.00
2022-09-23T20:51:25.451Z,5.95
2022-09-23T20:53:53.051Z,6.80
2022-09-23T20:56:23.377Z,6.35
2022-09-23T20:58:52.551Z,7.43
2022-09-23T21:01:20.105Z,13.45
2022-09-23T21:03:52.378Z,27.23
2022-09-23T21:06:19.775Z,25.57
2022-09-23T21:08:46.967Z,24.85
2022-09-23T21:11:16.520Z,16.80
2022-09-23T21:13:47.900Z,19.08
2022-09-23T21:16:16.104Z,12.57
2022-09-23T21:18:43.814Z,15.57
2022-09-23T21:21:12.171Z,12.55
2022-09-23T21:23:39.955Z,10.32
2022-09-23T21:26:09.490Z,7.35
2022-09-23T21:28:44.286Z,7.72
2022-09-23T21:31:25.973Z,6.45
2022-09-23T21:33:59.127Z,5.60
2022-09-23T21:36:28.186Z,5.63
2022-09-23T21:38:56.073Z,5.40
2022-09-23T21:41:23.676Z,5.82
2022-09-23T21:43:51.180Z,5.63
2022-09-23T21:46:20.276Z,5.55
2022-09-23T21:48:50.208Z,5.65
2022-09-23T21:51:19.928Z,5.93
2022-09-23T21:53:47.137Z,6.93
2022-09-23T21:56:28.443Z,6.00
2022-09-23T21:58:57.140Z,5.75
2022-09-23T22:01:38.406Z,5.70
2022-09-23T22:04:17.772Z,6.15
2022-09-23T22:06:45.096Z,5.93
2022-09-23T22:09:14.946Z,5.55
2022-09-23T22:12:17.267Z,5.63
2022-09-23T22:14:46.196Z,5.40
2022-09-23T22:17:14.494Z,5.80
2022-09-23T22:19:46.449Z,5.45
2022-09-23T22:22:15.649Z,6.05
2022-09-23T22:24:43.134Z,5.60
2022-09-23T22:27:12.952Z,5.47
2022-09-23T22:29:58.428Z,5.65
2022-09-23T22:32:40.720Z,5.40
2022-09-23T22:35:13.780Z,5.10
2022-09-23T22:40:14.387Z,5.50
2022-09-23T22:42:42.372Z,5.65
2022-09-23T22:45:10.597Z,6.00
2022-09-23T22:47:40.364Z,6.00
2022-09-23T22:50:16.197Z,5.72
2022-09-23T22:52:43.307Z,5.93
2022-09-23T22:55:10.887Z,5.93
2022-09-23T22:57:37.610Z,4.88
2022-09-23T23:00:08.399Z,5.28
2022-09-23T23:02:35.209Z,4.90
2022-09-23T23:05:02.619Z,4.97
2022-09-23T23:07:29.367Z,5.53
2022-09-23T23:09:56.091Z,5.05
2022-09-23T23:12:22.853Z,5.70
2022-09-23T23:14:49.901Z,5.75
2022-09-23T23:17:17.213Z,6.05
2022-09-23T23:19:43.992Z,5.72
2022-09-23T23:22:11.062Z,5.22
2022-09-23T23:24:37.947Z,4.82
2022-09-23T23:27:04.794Z,5.03
2022-09-23T23:29:31.545Z,4.80
2022-09-23T23:31:58.329Z,5.30
2022-09-23T23:34:25.278Z,5.25
2022-09-23T23:36:56.000Z,5.50
2022-09-23T23:39:24.916Z,4.90
2022-09-23T23:41:56.094Z,5.70
2022-09-23T23:44:24.643Z,5.47
2022-09-23T23:46:52.160Z,5.13
2022-09-23T23:49:19.507Z,5.65
2022-09-23T23:51:46.463Z,5.38
2022-09-23T23:54:15.151Z,5.43
2022-09-23T23:56:42.043Z,5.32
2022-09-23T23:59:08.825Z,5.25
